CDT,Max TemperatureF,Mean TemperatureF,Min TemperatureF,Max Dew PointF,MeanDew PointF,Min DewpointF,Max Humidity, Mean Humidity, Min Humidity, Max Sea Level PressureIn, Mean Sea Level PressureIn, Min Sea Level PressureIn, Max VisibilityMiles, Mean VisibilityMiles, Min VisibilityMiles, Max Wind SpeedMPH, Mean Wind SpeedMPH, Max Gust SpeedMPH,PrecipitationIn, CloudCover, Events, WindDirDegrees
2012-9-1,88,75,61,58,52,48,72,52,32,30.12,30.00,29.84,10,10,10,28,15,37,0.00,0,,130
2012-9-2,89,74,58,64,57,49,75,58,40,29.86,29.78,29.73,10,10,10,28,13,39,T,1,Rain,179
2012-9-3,88,68,48,59,53,48,93,62,30,29.92,29.87,29.81,10,10,7,25,8,32,0.03,2,Rain,163
2012-9-4,87,71,55,58,52,43,93,57,21,29.83,29.80,29.76,10,10,10,15,5,18,0.03,1,,328
2012-9-5,77,65,53,55,47,41,83,57,31,29.90,29.87,29.83,10,10,10,25,10,30,0.03,3,Rain,287
2012-9-6,70,59,48,54,49,43,96,74,51,30.00,29.93,29.89,10,10,10,15,5,21,0.01,4,Rain,24
2012-9-7,72,60,47,51,44,40,93,64,35,30.12,30.07,30.01,10,10,10,23,11,38,0.00,3,,326
2012-9-8,71,59,46,46,43,41,80,58,35,30.16,30.03,29.92,10,10,10,32,16,43,0.00,3,,318
2012-9-9,75,56,36,46,40,36,92,59,25,30.25,30.13,29.95,10,10,2,17,6,23,0.00,0,,188
2012-9-10,91,75,58,48,45,42,57,39,21,29.93,29.70,29.58,10,10,10,29,16,36,0.00,0,,169
2012-9-11,82,68,54,51,42,29,56,38,19,29.95,29.69,29.58,10,10,10,25,10,32,T,0,,301
2012-9-12,74,60,45,34,27,18,50,32,14,30.24,30.11,29.95,10,10,10,30,11,36,0.00,0,,271
2012-9-13,74,54,34,33,27,23,69,43,16,30.34,30.29,30.23,10,10,10,22,6,28,0.00,2,,296
2012-9-14,76,57,37,38,32,29,79,49,18,30.35,30.29,30.18,10,10,10,14,5,20,0.00,0,,114
2012-9-15,88,69,50,47,39,34,52,35,17,30.17,29.97,29.79,10,10,10,18,9,24,0.00,0,,159
2012-9-16,68,57,45,46,42,38,80,60,40,30.10,30.00,29.82,10,10,10,24,12,29,T,3,Rain,347
2012-9-17,62,48,33,39,35,29,82,59,35,30.14,30.10,30.06,10,10,10,28,7,33,T,5,Rain,339
2012-9-18,61,47,32,38,34,30,89,62,35,30.09,29.95,29.69,10,10,10,21,9,44,0.00,3,,171
2012-9-19,67,56,44,42,36,30,59,44,28,29.91,29.73,29.60,10,10,10,32,16,40,0.00,3,,294
2012-9-20,67,54,40,41,33,29,65,45,24,29.96,29.91,29.86,10,10,10,24,11,30,T,3,Rain,292
2012-9-21,68,54,39,46,36,18,86,54,22,30.10,29.92,29.83,10,10,10,37,14,48,0.02,5,Rain,333
2012-9-22,58,44,30,31,27,23,85,59,32,30.35,30.27,30.12,10,10,10,22,9,26,0.00,1,,342
2012-9-23,63,44,25,28,24,22,81,51,20,30.36,30.27,30.10,10,10,10,13,4,17,0.00,0,,226
2012-9-24,83,61,38,41,31,24,59,38,17,30.07,29.87,29.73,10,10,10,23,12,37,0.00,0,,281
2012-9-25,63,47,30,36,31,25,82,59,35,30.05,29.97,29.90,10,10,8,15,8,18,0.00,0,,2
2012-9-26,65,47,28,34,29,25,82,54,26,30.20,30.16,30.06,10,10,10,9,3,13,0.00,0,,86
2012-9-27,75,59,42,33,30,27,62,42,22,30.24,30.17,30.10,10,10,10,17,10,22,0.00,0,,160
2012-9-28,85,67,49,43,36,29,55,38,20,30.14,30.10,30.04,10,10,9,17,7,20,0.00,0,,188
2012-9-29,85,65,45,42,34,29,63,39,14,30.12,30.04,29.96,10,10,9,15,7,17,0.00,0,,166
2012-9-30,86,68,50,48,39,32,50,36,21,29.96,29.90,29.81,10,10,10,21,11,24,0.00,0,,203